sensor_id;sensor_type;location;lat;lon;timestamp;pressure;altitude;pressure_sealevel;temperature;humidity
22580;BME280;11456;47.030;15.396;2023-02-13T00:00:36;99598.34;;;-0.62;86.78
22580;BME280;11456;47.030;15.396;2023-02-13T00:03:03;99595.94;;;-0.71;86.72
22580;BME280;11456;47.030;15.396;2023-02-13T00:05:30;99598.84;;;-0.84;87.51
22580;BME280;11456;47.030;15.396;2023-02-13T00:07:56;99598.25;;;-0.58;87.59
22580;BME280;11456;47.030;15.396;2023-02-13T00:10:23;99592.28;;;-0.66;87.95
22580;BME280;11456;47.030;15.396;2023-02-13T00:12:50;99594.50;;;-0.49;87.88
22580;BME280;11456;47.030;15.396;2023-02-13T00:15:16;99596.41;;;-0.54;88.32
22580;BME280;11456;47.030;15.396;2023-02-13T00:17:43;99601.31;;;-0.76;87.83
22580;BME280;11456;47.030;15.396;2023-02-13T00:20:09;99600.09;;;-0.61;88.21
22580;BME280;11456;47.030;15.396;2023-02-13T00:22:37;99600.50;;;-0.79;87.93
22580;BME280;11456;47.030;15.396;2023-02-13T00:25:04;99593.19;;;-0.68;88.42
22580;BME280;11456;47.030;15.396;2023-02-13T00:27:31;99595.69;;;-0.62;87.40
22580;BME280;11456;47.030;15.396;2023-02-13T00:29:58;99589.94;;;-0.79;86.74
22580;BME280;11456;47.030;15.396;2023-02-13T00:32:24;99597.13;;;-0.85;87.88
22580;BME280;11456;47.030;15.396;2023-02-13T00:34:53;99593.28;;;-0.71;87.86
22580;BME280;11456;47.030;15.396;2023-02-13T00:37:19;99595.09;;;-0.73;88.10
22580;BME280;11456;47.030;15.396;2023-02-13T00:39:46;99597.03;;;-0.82;88.28
22580;BME280;11456;47.030;15.396;2023-02-13T00:42:12;99597.75;;;-0.75;88.29
22580;BME280;11456;47.030;15.396;2023-02-13T00:44:42;99591.59;;;-0.75;87.70
22580;BME280;11456;47.030;15.396;2023-02-13T00:47:09;99599.69;;;-0.83;87.56
22580;BME280;11456;47.030;15.396;2023-02-13T00:49:39;99601.75;;;-0.96;88.20
22580;BME280;11456;47.030;15.396;2023-02-13T00:52:06;99603.13;;;-0.78;88.26
22580;BME280;11456;47.030;15.396;2023-02-13T00:54:33;99600.66;;;-0.86;87.65
22580;BME280;11456;47.030;15.396;2023-02-13T00:56:59;99600.56;;;-0.83;87.37
22580;BME280;11456;47.030;15.396;2023-02-13T00:59:26;99599.19;;;-0.99;87.26
22580;BME280;11456;47.030;15.396;2023-02-13T01:01:52;99596.31;;;-1.28;87.98
22580;BME280;11456;47.030;15.396;2023-02-13T01:04:19;99597.81;;;-1.16;88.66
22580;BME280;11456;47.030;15.396;2023-02-13T01:06:45;99588.94;;;-1.14;88.34
22580;BME280;11456;47.030;15.396;2023-02-13T01:09:12;99588.88;;;-1.11;88.73
22580;BME280;11456;47.030;15.396;2023-02-13T01:11:38;99594.47;;;-0.85;87.95
22580;BME280;11456;47.030;15.396;2023-02-13T01:14:05;99592.09;;;-0.97;87.54
22580;BME280;11456;47.030;15.396;2023-02-13T01:16:32;99590.34;;;-0.98;87.40
22580;BME280;11456;47.030;15.396;2023-02-13T01:18:58;99590.69;;;-1.13;87.93
22580;BME280;11456;47.030;15.396;2023-02-13T01:21:25;99591.78;;;-1.23;87.81
22580;BME280;11456;47.030;15.396;2023-02-13T01:23:51;99587.66;;;-1.36;87.21
22580;BME280;11456;47.030;15.396;2023-02-13T01:26:19;99585.91;;;-1.37;87.78
22580;BME280;11456;47.030;15.396;2023-02-13T01:28:51;99589.28;;;-1.29;87.90
22580;BME280;11456;47.030;15.396;2023-02-13T01:31:17;99583.72;;;-1.17;87.12
22580;BME280;11456;47.030;15.396;2023-02-13T01:33:44;99580.19;;;-1.16;88.04
22580;BME280;11456;47.030;15.396;2023-02-13T01:36:11;99586.50;;;-1.23;87.69
22580;BME280;11456;47.030;15.396;2023-02-13T01:38:39;99584.91;;;-1.32;87.07
22580;BME280;11456;47.030;15.396;2023-02-13T01:41:06;99580.88;;;-1.49;87.92
22580;BME280;11456;47.030;15.396;2023-02-13T01:43:43;99585.97;;;-1.40;87.96
22580;BME280;11456;47.030;15.396;2023-02-13T01:46:09;99585.03;;;-1.38;87.70
22580;BME280;11456;47.030;15.396;2023-02-13T01:48:37;99581.53;;;-1.40;87.99
22580;BME280;11456;47.030;15.396;2023-02-13T01:51:05;99577.38;;;-1.51;86.98
22580;BME280;11456;47.030;15.396;2023-02-13T01:58:39;99588.84;;;-1.51;88.50
22580;BME280;11456;47.030;15.396;2023-02-13T02:01:07;99586.97;;;-1.46;88.33
22580;BME280;11456;47.030;15.396;2023-02-13T02:03:36;99586.22;;;-1.52;88.34
22580;BME280;11456;47.030;15.396;2023-02-13T02:06:08;99584.41;;;-1.50;88.72
22580;BME280;11456;47.030;15.396;2023-02-13T02:08:37;99577.34;;;-1.48;87.90
22580;BME280;11456;47.030;15.396;2023-02-13T02:11:05;99572.34;;;-1.64;88.66
22580;BME280;11456;47.030;15.396;2023-02-13T02:13:33;99570.47;;;-1.58;88.29
22580;BME280;11456;47.030;15.396;2023-02-13T02:16:05;99577.25;;;-1.45;88.47
22580;BME280;11456;47.030;15.396;2023-02-13T02:18:32;99576.47;;;-1.49;88.35
22580;BME280;11456;47.030;15.396;2023-02-13T02:44:57;99584.38;;;-1.93;90.41
22580;BME280;11456;47.030;15.396;2023-02-13T02:50:15;99577.03;;;-1.78;89.42
22580;BME280;11456;47.030;15.396;2023-02-13T02:52:53;99571.88;;;-1.84;89.93
22580;BME280;11456;47.030;15.396;2023-02-13T02:58:20;99569.06;;;-1.75;90.52
22580;BME280;11456;47.030;15.396;2023-02-13T03:01:10;99568.34;;;-1.84;89.22
22580;BME280;11456;47.030;15.396;2023-02-13T03:03:57;99572.66;;;-1.79;88.87
22580;BME280;11456;47.030;15.396;2023-02-13T03:06:45;99579.75;;;-1.81;88.86
22580;BME280;11456;47.030;15.396;2023-02-13T03:09:24;99580.56;;;-1.79;88.79
22580;BME280;11456;47.030;15.396;2023-02-13T03:12:11;99578.16;;;-1.91;89.90
22580;BME280;11456;47.030;15.396;2023-02-13T03:14:59;99571.09;;;-1.90;89.60
22580;BME280;11456;47.030;15.396;2023-02-13T03:17:26;99575.06;;;-1.67;89.57
22580;BME280;11456;47.030;15.396;2023-02-13T03:25:44;99572.72;;;-1.82;90.04
22580;BME280;11456;47.030;15.396;2023-02-13T03:33:35;99559.50;;;-1.82;88.97
22580;BME280;11456;47.030;15.396;2023-02-13T03:38:53;99554.28;;;-1.85;90.30
22580;BME280;11456;47.030;15.396;2023-02-13T03:41:24;99554.88;;;-1.71;90.46
22580;BME280;11456;47.030;15.396;2023-02-13T03:44:05;99552.34;;;-1.75;89.95
22580;BME280;11456;47.030;15.396;2023-02-13T03:46:37;99546.06;;;-1.70;90.80
22580;BME280;11456;47.030;15.396;2023-02-13T03:49:05;99547.72;;;-1.66;91.05
22580;BME280;11456;47.030;15.396;2023-02-13T03:54:32;99545.88;;;-1.60;90.25
22580;BME280;11456;47.030;15.396;2023-02-13T03:57:18;99545.94;;;-1.64;90.98
22580;BME280;11456;47.030;15.396;2023-02-13T04:00:06;99542.28;;;-1.58;90.23
22580;BME280;11456;47.030;15.396;2023-02-13T04:02:42;99549.56;;;-1.68;90.51
22580;BME280;11456;47.030;15.396;2023-02-13T04:05:15;99548.72;;;-1.71;89.91
22580;BME280;11456;47.030;15.396;2023-02-13T04:07:42;99553.09;;;-1.69;90.45
22580;BME280;11456;47.030;15.396;2023-02-13T04:10:09;99551.75;;;-1.91;89.89
22580;BME280;11456;47.030;15.396;2023-02-13T04:12:51;99546.47;;;-1.91;90.07
22580;BME280;11456;47.030;15.396;2023-02-13T04:15:39;99549.97;;;-1.89;89.76
22580;BME280;11456;47.030;15.396;2023-02-13T04:18:09;99553.56;;;-1.93;90.40
22580;BME280;11456;47.030;15.396;2023-02-13T04:20:36;99549.19;;;-1.94;89.98
22580;BME280;11456;47.030;15.396;2023-02-13T04:23:07;99548.53;;;-2.05;89.76
22580;BME280;11456;47.030;15.396;2023-02-13T04:25:35;99542.53;;;-2.15;90.33
22580;BME280;11456;47.030;15.396;2023-02-13T04:28:03;99544.16;;;-2.08;90.09
22580;BME280;11456;47.030;15.396;2023-02-13T04:30:29;99548.53;;;-2.05;90.71
22580;BME280;11456;47.030;15.396;2023-02-13T04:32:56;99544.44;;;-2.23;89.80
22580;BME280;11456;47.030;15.396;2023-02-13T04:35:22;99542.00;;;-2.33;90.16
22580;BME280;11456;47.030;15.396;2023-02-13T04:37:49;99543.00;;;-2.40;90.56
22580;BME280;11456;47.030;15.396;2023-02-13T04:40:15;99545.31;;;-2.22;91.16
22580;BME280;11456;47.030;15.396;2023-02-13T04:42:42;99543.44;;;-2.17;90.80
22580;BME280;11456;47.030;15.396;2023-02-13T04:45:08;99544.56;;;-2.30;89.50
22580;BME280;11456;47.030;15.396;2023-02-13T04:47:35;99538.34;;;-2.26;89.83
22580;BME280;11456;47.030;15.396;2023-02-13T04:50:01;99543.50;;;-2.20;89.78
22580;BME280;11456;47.030;15.396;2023-02-13T04:52:28;99544.28;;;-2.14;89.03
22580;BME280;11456;47.030;15.396;2023-02-13T04:54:54;99545.25;;;-2.19;89.38
22580;BME280;11456;47.030;15.396;2023-02-13T04:57:21;99542.00;;;-2.33;88.67
22580;BME280;11456;47.030;15.396;2023-02-13T04:59:47;99553.22;;;-2.22;89.01
22580;BME280;11456;47.030;15.396;2023-02-13T05:02:14;99557.63;;;-2.23;89.10
22580;BME280;11456;47.030;15.396;2023-02-13T05:04:40;99551.53;;;-2.25;88.80
22580;BME280;11456;47.030;15.396;2023-02-13T05:07:07;99555.84;;;-2.22;88.38
22580;BME280;11456;47.030;15.396;2023-02-13T05:09:33;99552.31;;;-2.21;88.90
22580;BME280;11456;47.030;15.396;2023-02-13T05:12:00;99548.56;;;-2.08;89.33
22580;BME280;11456;47.030;15.396;2023-02-13T05:14:27;99548.56;;;-2.08;89.27
22580;BME280;11456;47.030;15.396;2023-02-13T05:16:53;99554.13;;;-2.23;88.84
22580;BME280;11456;47.030;15.396;2023-02-13T05:19:20;99557.56;;;-2.18;89.31
22580;BME280;11456;47.030;15.396;2023-02-13T05:21:46;99562.88;;;-2.21;88.68
22580;BME280;11456;47.030;15.396;2023-02-13T05:24:32;99561.47;;;-2.40;88.54
22580;BME280;11456;47.030;15.396;2023-02-13T05:26:58;99552.88;;;-2.52;89.68
22580;BME280;11456;47.030;15.396;2023-02-13T05:29:24;99545.53;;;-2.34;89.70
22580;BME280;11456;47.030;15.396;2023-02-13T05:31:52;99543.00;;;-2.40;89.28
22580;BME280;11456;47.030;15.396;2023-02-13T05:34:20;99554.06;;;-2.20;89.82
22580;BME280;11456;47.030;15.396;2023-02-13T05:36:46;99549.78;;;-2.26;89.09
22580;BME280;11456;47.030;15.396;2023-02-13T05:39:13;99547.31;;;-2.36;88.31
22580;BME280;11456;47.030;15.396;2023-02-13T05:41:41;99548.91;;;-2.26;88.39
22580;BME280;11456;47.030;15.396;2023-02-13T05:44:08;99552.31;;;-2.21;87.89
22580;BME280;11456;47.030;15.396;2023-02-13T05:46:35;99545.53;;;-2.34;87.94
22580;BME280;11456;47.030;15.396;2023-02-13T05:49:04;99545.41;;;-2.28;88.08
22580;BME280;11456;47.030;15.396;2023-02-13T05:51:30;99554.06;;;-2.20;88.00
22580;BME280;11456;47.030;15.396;2023-02-13T05:53:57;99557.59;;;-2.20;89.03
22580;BME280;11456;47.030;15.396;2023-02-13T05:56:24;99554.19;;;-2.26;90.36
22580;BME280;11456;47.030;15.396;2023-02-13T05:58:51;99554.59;;;-2.02;90.09
22580;BME280;11456;47.030;15.396;2023-02-13T06:01:18;99552.06;;;-2.06;89.29
22580;BME280;11456;47.030;15.396;2023-02-13T06:03:45;99560.22;;;-2.20;89.21
22580;BME280;11456;47.030;15.396;2023-02-13T06:06:11;99556.06;;;-2.33;88.80
22580;BME280;11456;47.030;15.396;2023-02-13T06:08:38;99554.53;;;-2.46;90.39
22580;BME280;11456;47.030;15.396;2023-02-13T06:11:04;99554.13;;;-2.23;91.15
22580;BME280;11456;47.030;15.396;2023-02-13T06:13:31;99563.09;;;-2.33;89.58
22580;BME280;11456;47.030;15.396;2023-02-13T06:15:57;99559.47;;;-2.26;89.95
22580;BME280;11456;47.030;15.396;2023-02-13T06:18:24;99563.03;;;-2.30;89.73
22580;BME280;11456;47.030;15.396;2023-02-13T06:20:50;99564.63;;;-2.20;90.05
22580;BME280;11456;47.030;15.396;2023-02-13T06:23:17;99568.22;;;-1.77;90.33
22580;BME280;11456;47.030;15.396;2023-02-13T06:25:43;99570.06;;;-1.82;87.49
22580;BME280;11456;47.030;15.396;2023-02-13T06:28:10;99569.72;;;-1.65;87.88
22580;BME280;11456;47.030;15.396;2023-02-13T06:30:36;99569.19;;;-1.81;87.70
22580;BME280;11456;47.030;15.396;2023-02-13T06:33:03;99576.59;;;-1.55;87.85
22580;BME280;11456;47.030;15.396;2023-02-13T06:35:29;99567.41;;;-1.37;87.39
22580;BME280;11456;47.030;15.396;2023-02-13T06:37:56;99562.56;;;-1.17;87.17
22580;BME280;11456;47.030;15.396;2023-02-13T06:40:22;99560.22;;;-0.54;87.37
22580;BME280;11456;47.030;15.396;2023-02-13T06:42:49;99574.13;;;-0.12;84.98
22580;BME280;11456;47.030;15.396;2023-02-13T06:45:15;99582.63;;;-0.70;85.08
22580;BME280;11456;47.030;15.396;2023-02-13T06:47:42;99584.50;;;-0.73;87.25
22580;BME280;11456;47.030;15.396;2023-02-13T06:50:10;99575.94;;;-0.48;87.77
22580;BME280;11456;47.030;15.396;2023-02-13T06:52:37;99591.56;;;-0.74;87.66
22580;BME280;11456;47.030;15.396;2023-02-13T06:55:04;99585.34;;;-0.36;87.57
22580;BME280;11456;47.030;15.396;2023-02-13T06:57:31;99586.88;;;-0.26;86.89
22580;BME280;11456;47.030;15.396;2023-02-13T06:59:59;99580.69;;;0.08;87.80
22580;BME280;11456;47.030;15.396;2023-02-13T07:02:25;99583.63;;;0.31;87.25
22580;BME280;11456;47.030;15.396;2023-02-13T07:04:52;99586.50;;;0.54;87.11
22580;BME280;11456;47.030;15.396;2023-02-13T07:07:18;99578.47;;;0.87;86.25
22580;BME280;11456;47.030;15.396;2023-02-13T07:09:45;99577.84;;;1.08;84.85
22580;BME280;11456;47.030;15.396;2023-02-13T07:12:11;99584.22;;;1.58;83.38
22580;BME280;11456;47.030;15.396;2023-02-13T07:14:38;99576.28;;;2.09;83.26
22580;BME280;11456;47.030;15.396;2023-02-13T07:17:04;99579.69;;;2.37;82.69
22580;BME280;11456;47.030;15.396;2023-02-13T07:19:31;99576.13;;;2.87;80.95
22580;BME280;11456;47.030;15.396;2023-02-13T07:21:57;99568.50;;;3.22;80.14
22580;BME280;11456;47.030;15.396;2023-02-13T07:24:24;99568.44;;;3.46;79.95
22580;BME280;11456;47.030;15.396;2023-02-13T07:26:50;99566.03;;;3.83;78.33
22580;BME280;11456;47.030;15.396;2023-02-13T07:29:17;99570.19;;;4.31;75.87
22580;BME280;11456;47.030;15.396;2023-02-13T07:31:44;99566.16;;;4.81;72.87
22580;BME280;11456;47.030;15.396;2023-02-13T07:34:10;99561.28;;;5.10;72.04
22580;BME280;11456;47.030;15.396;2023-02-13T07:36:37;99559.03;;;5.01;70.88
22580;BME280;11456;47.030;15.396;2023-02-13T07:39:03;99553.09;;;5.50;68.99
22580;BME280;11456;47.030;15.396;2023-02-13T07:41:30;99550.75;;;5.61;66.80
22580;BME280;11456;47.030;15.396;2023-02-13T07:43:56;99555.88;;;6.02;66.48
22580;BME280;11456;47.030;15.396;2023-02-13T07:46:23;99544.19;;;5.86;67.87
22580;BME280;11456;47.030;15.396;2023-02-13T07:48:52;99557.31;;;7.09;62.75
22580;BME280;11456;47.030;15.396;2023-02-13T07:51:19;99544.84;;;7.55;59.68
22580;BME280;11456;47.030;15.396;2023-02-13T07:53:51;99553.91;;;8.00;58.28
22580;BME280;11456;47.030;15.396;2023-02-13T07:56:17;99548.50;;;7.39;59.53
22580;BME280;11456;47.030;15.396;2023-02-13T07:58:44;99552.81;;;7.73;58.12
22580;BME280;11456;47.030;15.396;2023-02-13T08:01:11;99556.84;;;8.41;57.32
22580;BME280;11456;47.030;15.396;2023-02-13T08:03:39;99556.84;;;8.41;56.42
22580;BME280;11456;47.030;15.396;2023-02-13T08:06:05;99554.06;;;8.27;57.01
22580;BME280;11456;47.030;15.396;2023-02-13T08:08:33;99555.88;;;8.42;55.67
22580;BME280;11456;47.030;15.396;2023-02-13T08:11:04;99550.34;;;7.99;55.40
22580;BME280;11456;47.030;15.396;2023-02-13T08:13:51;99550.72;;;6.33;59.34
22580;BME280;11456;47.030;15.396;2023-02-13T08:16:17;99547.38;;;6.11;60.90
22580;BME280;11456;47.030;15.396;2023-02-13T08:18:44;99544.94;;;5.71;63.45
22580;BME280;11456;47.030;15.396;2023-02-13T08:21:11;99538.81;;;6.39;62.98
22580;BME280;11456;47.030;15.396;2023-02-13T08:23:37;99539.25;;;6.47;60.51
22580;BME280;11456;47.030;15.396;2023-02-13T08:26:04;99536.03;;;6.40;61.56
22580;BME280;11456;47.030;15.396;2023-02-13T08:28:30;99534.63;;;6.83;60.45
22580;BME280;11456;47.030;15.396;2023-02-13T08:30:57;99535.69;;;7.44;58.79
22580;BME280;11456;47.030;15.396;2023-02-13T08:33:23;99526.38;;;7.51;59.83
22580;BME280;11456;47.030;15.396;2023-02-13T08:35:50;99530.34;;;7.44;59.16
22580;BME280;11456;47.030;15.396;2023-02-13T08:38:16;99527.59;;;6.81;59.63
22580;BME280;11456;47.030;15.396;2023-02-13T08:40:43;99531.38;;;7.25;59.56
22580;BME280;11456;47.030;15.396;2023-02-13T08:43:09;99525.25;;;8.89;56.52
22580;BME280;11456;47.030;15.396;2023-02-13T08:45:36;99534.41;;;8.42;57.44
22580;BME280;11456;47.030;15.396;2023-02-13T08:48:02;99526.00;;;8.02;55.38
22580;BME280;11456;47.030;15.396;2023-02-13T08:50:29;99526.75;;;8.64;55.32
22580;BME280;11456;47.030;15.396;2023-02-13T08:52:56;99535.47;;;8.54;54.30
22580;BME280;11456;47.030;15.396;2023-02-13T08:55:23;99528.69;;;8.62;54.49
22580;BME280;11456;47.030;15.396;2023-02-13T08:57:50;99519.97;;;9.01;52.84
22580;BME280;11456;47.030;15.396;2023-02-13T09:00:16;99523.00;;;8.23;55.23
22580;BME280;11456;47.030;15.396;2023-02-13T09:02:43;99521.19;;;8.67;54.24
22580;BME280;11456;47.030;15.396;2023-02-13T09:05:09;99522.16;;;8.80;53.52
22580;BME280;11456;47.030;15.396;2023-02-13T09:07:36;99525.84;;;8.05;56.22
22580;BME280;11456;47.030;15.396;2023-02-13T09:10:02;99521.38;;;9.21;52.97
22580;BME280;11456;47.030;15.396;2023-02-13T09:12:29;99523.56;;;10.36;50.96
22580;BME280;11456;47.030;15.396;2023-02-13T09:14:55;99527.44;;;10.57;48.12
22580;BME280;11456;47.030;15.396;2023-02-13T09:17:22;99531.34;;;10.66;49.19
22580;BME280;11456;47.030;15.396;2023-02-13T09:19:48;99529.47;;;10.28;49.84
22580;BME280;11456;47.030;15.396;2023-02-13T09:22:15;99534.59;;;9.79;50.47
22580;BME280;11456;47.030;15.396;2023-02-13T09:24:42;99538.69;;;9.85;50.58
22580;BME280;11456;47.030;15.396;2023-02-13T09:27:09;99540.59;;;10.36;49.61
22580;BME280;11456;47.030;15.396;2023-02-13T09:29:35;99533.88;;;10.17;50.18
22580;BME280;11456;47.030;15.396;2023-02-13T09:32:03;99545.13;;;9.41;50.72
22580;BME280;11456;47.030;15.396;2023-02-13T09:34:29;99546.28;;;10.05;50.25
22580;BME280;11456;47.030;15.396;2023-02-13T09:36:56;99549.81;;;8.82;52.22
22580;BME280;11456;47.030;15.396;2023-02-13T09:39:22;99550.63;;;9.66;51.20
22580;BME280;11456;47.030;15.396;2023-02-13T09:41:49;99542.94;;;9.75;50.36
22580;BME280;11456;47.030;15.396;2023-02-13T09:47:12;99546.75;;;10.89;48.21
22580;BME280;11456;47.030;15.396;2023-02-13T09:49:41;99545.75;;;10.39;49.78
22580;BME280;11456;47.030;15.396;2023-02-13T09:52:08;99551.06;;;10.79;48.92
22580;BME280;11456;47.030;15.396;2023-02-13T09:54:35;99552.25;;;11.25;49.22
22580;BME280;11456;47.030;15.396;2023-02-13T09:57:04;99548.41;;;11.41;47.17
22580;BME280;11456;47.030;15.396;2023-02-13T09:59:38;99557.00;;;11.09;48.08
22580;BME280;11456;47.030;15.396;2023-02-13T10:12:53;99552.13;;;11.02;47.60
22580;BME280;11456;47.030;15.396;2023-02-13T10:18:11;99540.72;;;10.85;49.27
22580;BME280;11456;47.030;15.396;2023-02-13T10:20:53;99536.38;;;11.08;46.82
22580;BME280;11456;47.030;15.396;2023-02-13T10:26:01;99530.59;;;11.51;46.52
22580;BME280;11456;47.030;15.396;2023-02-13T10:31:03;99532.38;;;11.39;46.94
22580;BME280;11456;47.030;15.396;2023-02-13T10:36:01;99523.41;;;11.75;46.26
22580;BME280;11456;47.030;15.396;2023-02-13T10:38:29;99525.31;;;11.49;47.14
22580;BME280;11456;47.030;15.396;2023-02-13T10:41:04;99522.28;;;10.92;47.78
22580;BME280;11456;47.030;15.396;2023-02-13T10:43:37;99513.63;;;11.85;45.95
22580;BME280;11456;47.030;15.396;2023-02-13T10:46:10;99507.84;;;11.79;45.44
22580;BME280;11456;47.030;15.396;2023-02-13T10:48:46;99518.00;;;11.99;45.72
22580;BME280;11456;47.030;15.396;2023-02-13T10:56:55;99510.06;;;12.43;44.26
22580;BME280;11456;47.030;15.396;2023-02-13T11:01:56;99510.59;;;12.60;45.17
22580;BME280;11456;47.030;15.396;2023-02-13T11:04:23;99508.06;;;13.25;42.10
22580;BME280;11456;47.030;15.396;2023-02-13T11:09:19;99501.94;;;13.34;42.62
22580;BME280;11456;47.030;15.396;2023-02-13T11:11:45;99502.56;;;12.01;44.08
22580;BME280;11456;47.030;15.396;2023-02-13T11:21:55;99492.22;;;13.43;41.64
22580;BME280;11456;47.030;15.396;2023-02-13T11:24:23;99478.28;;;13.47;41.80
22580;BME280;11456;47.030;15.396;2023-02-13T11:26:56;99485.94;;;13.09;42.35
22580;BME280;11456;47.030;15.396;2023-02-13T11:29:25;99478.00;;;13.61;41.50
22580;BME280;11456;47.030;15.396;2023-02-13T11:32:06;99467.69;;;14.19;40.89
22580;BME280;11456;47.030;15.396;2023-02-13T11:34:38;99466.97;;;13.42;40.71
22580;BME280;11456;47.030;15.396;2023-02-13T11:39:40;99472.97;;;14.00;40.94
22580;BME280;11456;47.030;15.396;2023-02-13T11:42:26;99467.88;;;13.75;41.50
22580;BME280;11456;47.030;15.396;2023-02-13T11:45:06;99467.69;;;14.19;41.03
22580;BME280;11456;47.030;15.396;2023-02-13T11:47:35;99469.25;;;14.01;40.04
22580;BME280;11456;47.030;15.396;2023-02-13T11:50:03;99461.94;;;13.49;41.93
22580;BME280;11456;47.030;15.396;2023-02-13T11:52:31;99465.19;;;13.95;40.57
22580;BME280;11456;47.030;15.396;2023-02-13T11:54:58;99464.03;;;13.88;40.66
22580;BME280;11456;47.030;15.396;2023-02-13T11:57:29;99459.25;;;13.81;40.49
22580;BME280;11456;47.030;15.396;2023-02-13T11:59:56;99450.09;;;14.34;39.88
22580;BME280;11456;47.030;15.396;2023-02-13T12:02:46;99462.06;;;14.32;40.23
22580;BME280;11456;47.030;15.396;2023-02-13T12:07:37;99451.44;;;14.19;40.83
22580;BME280;11456;47.030;15.396;2023-02-13T12:10:15;99457.22;;;13.94;40.47
22580;BME280;11456;47.030;15.396;2023-02-13T12:15:32;99443.53;;;13.63;41.06
22580;BME280;11456;47.030;15.396;2023-02-13T12:20:37;99436.72;;;14.84;38.37
22580;BME280;11456;47.030;15.396;2023-02-13T12:23:08;99437.09;;;14.08;40.34
22580;BME280;11456;47.030;15.396;2023-02-13T12:41:19;99422.72;;;13.96;40.44
22580;BME280;11456;47.030;15.396;2023-02-13T12:46:26;99414.72;;;14.36;39.86
22580;BME280;11456;47.030;15.396;2023-02-13T12:49:19;99412.16;;;14.34;39.75
22580;BME280;11456;47.030;15.396;2023-02-13T12:51:55;99411.44;;;14.32;39.60
22580;BME280;11456;47.030;15.396;2023-02-13T12:54:38;99408.31;;;14.37;39.25
22580;BME280;11456;47.030;15.396;2023-02-13T13:07:33;99390.94;;;14.19;39.59
22580;BME280;11456;47.030;15.396;2023-02-13T13:10:28;99398.38;;;14.68;38.38
22580;BME280;11456;47.030;15.396;2023-02-13T13:23:22;99393.00;;;14.26;39.48
22580;BME280;11456;47.030;15.396;2023-02-13T13:25:55;99393.94;;;13.95;39.25
22580;BME280;11456;47.030;15.396;2023-02-13T13:28:23;99389.06;;;13.78;40.30
22580;BME280;11456;47.030;15.396;2023-02-13T13:30:51;99382.94;;;14.59;38.90
22580;BME280;11456;47.030;15.396;2023-02-13T13:33:23;99391.09;;;14.68;38.04
22580;BME280;11456;47.030;15.396;2023-02-13T13:38:32;99398.16;;;13.24;40.79
22580;BME280;11456;47.030;15.396;2023-02-13T13:41:26;99388.38;;;13.76;40.50
22580;BME280;11456;47.030;15.396;2023-02-13T13:51:24;99394.31;;;13.58;40.90
22580;BME280;11456;47.030;15.396;2023-02-13T13:56:48;99396.34;;;13.77;40.99
22580;BME280;11456;47.030;15.396;2023-02-13T13:59:16;99399.06;;;13.98;39.89
22580;BME280;11456;47.030;15.396;2023-02-13T14:01:43;99408.81;;;13.69;40.40
22580;BME280;11456;47.030;15.396;2023-02-13T14:11:51;99403.34;;;14.21;39.66
22580;BME280;11456;47.030;15.396;2023-02-13T14:16:54;99399.81;;;14.00;39.54
22580;BME280;11456;47.030;15.396;2023-02-13T14:19:37;99395.63;;;13.32;40.61
22580;BME280;11456;47.030;15.396;2023-02-13T14:22:47;99391.06;;;13.76;40.12
22580;BME280;11456;47.030;15.396;2023-02-13T14:24:55;99383.03;;;12.99;41.75
22580;BME280;11456;47.030;15.396;2023-02-13T14:27:23;99383.75;;;14.08;40.03
22580;BME280;11456;47.030;15.396;2023-02-13T14:29:50;99392.47;;;13.27;41.21
22580;BME280;11456;47.030;15.396;2023-02-13T14:34:51;99386.13;;;12.61;42.88
22580;BME280;11456;47.030;15.396;2023-02-13T14:37:30;99378.97;;;12.94;41.74
22580;BME280;11456;47.030;15.396;2023-02-13T14:40:43;99376.25;;;13.05;41.80
22580;BME280;11456;47.030;15.396;2023-02-13T14:42:45;99374.81;;;12.90;41.84
22580;BME280;11456;47.030;15.396;2023-02-13T14:45:14;99378.97;;;12.94;41.99
22580;BME280;11456;47.030;15.396;2023-02-13T14:47:49;99380.69;;;12.95;42.21
22580;BME280;11456;47.030;15.396;2023-02-13T14:50:21;99375.06;;;12.75;42.20
22580;BME280;11456;47.030;15.396;2023-02-13T14:52:48;99376.25;;;13.05;42.03
22580;BME280;11456;47.030;15.396;2023-02-13T14:55:16;99377.03;;;12.73;42.03
22580;BME280;11456;47.030;15.396;2023-02-13T14:57:46;99374.28;;;11.95;43.88
22580;BME280;11456;47.030;15.396;2023-02-13T15:02:54;99370.38;;;12.89;42.24
22580;BME280;11456;47.030;15.396;2023-02-13T15:05:25;99368.19;;;12.49;43.43
22580;BME280;11456;47.030;15.396;2023-02-13T15:08:02;99364.50;;;12.28;43.35
22580;BME280;11456;47.030;15.396;2023-02-13T15:12:57;99362.25;;;11.99;44.01
22580;BME280;11456;47.030;15.396;2023-02-13T15:15:30;99359.34;;;12.47;43.09
22580;BME280;11456;47.030;15.396;2023-02-13T15:18:19;99352.19;;;12.24;43.87
22580;BME280;11456;47.030;15.396;2023-02-13T15:20:44;99357.22;;;11.95;44.99
22580;BME280;11456;47.030;15.396;2023-02-13T15:23:22;99365.31;;;12.06;44.47
22580;BME280;11456;47.030;15.396;2023-02-13T15:25:59;99360.78;;;11.95;44.85
22580;BME280;11456;47.030;15.396;2023-02-13T15:28:26;99359.97;;;11.23;46.81
22580;BME280;11456;47.030;15.396;2023-02-13T15:30:54;99352.78;;;10.38;48.47
22580;BME280;11456;47.030;15.396;2023-02-13T15:33:23;99350.75;;;10.42;49.00
22580;BME280;11456;47.030;15.396;2023-02-13T15:36:00;99360.00;;;10.00;50.42
22580;BME280;11456;47.030;15.396;2023-02-13T15:38:31;99355.22;;;9.53;50.89
22580;BME280;11456;47.030;15.396;2023-02-13T15:41:05;99355.50;;;9.09;52.56
22580;BME280;11456;47.030;15.396;2023-02-13T15:43:35;99350.50;;;9.03;52.96
22580;BME280;11456;47.030;15.396;2023-02-13T15:46:46;99340.25;;;9.22;52.22
22580;BME280;11456;47.030;15.396;2023-02-13T15:48:53;99347.13;;;8.31;55.03
22580;BME280;11456;47.030;15.396;2023-02-13T15:51:20;99355.38;;;7.70;57.59
22580;BME280;11456;47.030;15.396;2023-02-13T15:53:51;99351.88;;;7.40;59.52
22580;BME280;11456;47.030;15.396;2023-02-13T15:56:18;99361.09;;;7.20;59.89
22580;BME280;11456;47.030;15.396;2023-02-13T15:58:44;99357.81;;;7.15;60.57